createdAt,value
2017-06-14T00:00:11.874Z,981.31
2017-06-14T00:01:21.825Z,981.32
2017-06-14T00:02:31.778Z,981.3
2017-06-14T00:03:42.040Z,981.3
2017-06-14T00:04:52.302Z,981.3
2017-06-14T00:06:04.574Z,981.27
2017-06-14T00:07:14.834Z,981.3
2017-06-14T00:08:25.095Z,981.34
2017-06-14T00:09:35.353Z,981.34
2017-06-14T00:10:45.616Z,981.37
2017-06-14T00:11:55.878Z,981.36
2017-06-14T00:13:05.508Z,981.37
2017-06-14T00:14:15.767Z,981.43
2017-06-14T00:15:26.032Z,981.45
2017-06-14T00:16:35.660Z,981.43
2017-06-14T00:17:45.921Z,981.45
2017-06-14T00:18:56.181Z,981.46
2017-06-14T00:20:06.123Z,981.42
2017-06-14T00:21:16.072Z,981.51
2017-06-14T00:22:26.338Z,981.51
2017-06-14T00:23:36.603Z,981.52
2017-06-14T00:24:46.558Z,981.52
2017-06-14T00:25:56.827Z,981.55
2017-06-14T00:27:06.784Z,981.54
2017-06-14T00:28:29.779Z,981.54
2017-06-14T00:29:40.047Z,981.58
2017-06-14T00:30:49.994Z,981.58
2017-06-14T00:31:59.941Z,981.56
2017-06-14T00:33:10.205Z,981.57
2017-06-14T00:34:22.474Z,981.56
2017-06-14T00:35:32.422Z,981.59
2017-06-14T00:36:42.687Z,981.59
2017-06-14T00:37:52.633Z,981.59
2017-06-14T00:39:02.893Z,981.58
2017-06-14T00:40:13.154Z,981.63
2017-06-14T00:41:23.418Z,981.6
2017-06-14T00:42:33.681Z,981.62
2017-06-14T00:43:43.624Z,981.61
2017-06-14T00:44:53.883Z,981.6
2017-06-14T00:46:04.142Z,981.61
2017-06-14T00:47:14.109Z,981.62
2017-06-14T00:48:24.373Z,981.62
2017-06-14T00:49:34.629Z,981.62
2017-06-14T00:50:44.573Z,981.65
2017-06-14T00:51:54.836Z,981.67
2017-06-14T00:53:05.092Z,981.66
2017-06-14T00:54:15.347Z,981.67
2017-06-14T00:55:24.978Z,981.66
2017-06-14T00:56:34.925Z,981.67
2017-06-14T00:57:45.186Z,981.66
2017-06-14T00:58:55.448Z,981.7
2017-06-14T01:00:05.393Z,981.71
2017-06-14T01:01:15.651Z,981.73
2017-06-14T01:02:25.914Z,981.69
2017-06-14T01:03:35.553Z,981.67
2017-06-14T01:04:45.814Z,981.69
2017-06-14T01:05:56.076Z,981.66
2017-06-14T01:07:06.024Z,981.6
2017-06-14T01:08:16.294Z,981.65
2017-06-14T01:09:26.244Z,981.65
2017-06-14T01:10:36.185Z,981.64
2017-06-14T01:11:46.440Z,981.63
2017-06-14T01:12:56.387Z,981.61
2017-06-14T01:14:06.647Z,981.68
2017-06-14T01:15:16.601Z,981.67
2017-06-14T01:16:26.859Z,981.7
2017-06-14T01:17:37.124Z,981.7
2017-06-14T01:18:47.385Z,981.67
2017-06-14T01:19:57.711Z,981.67
2017-06-14T01:21:07.974Z,981.69
2017-06-14T01:22:17.605Z,981.65
2017-06-14T01:23:27.866Z,981.67
2017-06-14T01:24:37.816Z,981.63
2017-06-14T01:25:48.078Z,981.62
2017-06-14T01:26:58.341Z,981.62
2017-06-14T01:28:08.283Z,981.64
2017-06-14T01:29:18.550Z,981.61
2017-06-14T01:30:28.808Z,981.59
2017-06-14T01:31:39.072Z,981.64
2017-06-14T01:32:49.019Z,981.63
2017-06-14T01:33:58.966Z,981.62
2017-06-14T01:35:09.224Z,981.64
2017-06-14T01:36:19.497Z,981.64
2017-06-14T01:37:29.759Z,981.68
2017-06-14T01:38:40.017Z,981.65
2017-06-14T01:39:50.279Z,981.64
2017-06-14T01:41:00.541Z,981.63
2017-06-14T01:42:10.806Z,981.65
2017-06-14T01:43:20.441Z,981.67
2017-06-14T01:44:30.696Z,981.65
2017-06-14T01:45:40.959Z,981.63
2017-06-14T01:46:50.911Z,981.67
2017-06-14T01:48:00.857Z,981.66
2017-06-14T01:49:11.123Z,981.66
2017-06-14T01:50:20.752Z,981.69
2017-06-14T01:51:30.697Z,981.69
2017-06-14T01:52:40.955Z,981.71
2017-06-14T01:53:51.214Z,981.7
2017-06-14T01:55:01.479Z,981.72
2017-06-14T01:56:11.428Z,981.73
2017-06-14T01:57:21.378Z,981.71
2017-06-14T01:58:31.641Z,981.7
2017-06-14T01:59:41.904Z,981.7
2017-06-14T02:00:52.169Z,981.7
2017-06-14T02:02:02.424Z,981.71
2017-06-14T02:03:12.369Z,981.71
2017-06-14T02:04:22.626Z,981.73
2017-06-14T02:05:32.254Z,981.77
2017-06-14T02:06:42.521Z,981.73
2017-06-14T02:07:52.816Z,981.77
2017-06-14T02:09:03.077Z,981.77
2017-06-14T02:10:13.342Z,981.72
2017-06-14T02:11:23.608Z,981.74
2017-06-14T02:12:33.871Z,981.74
2017-06-14T02:13:44.130Z,981.78
2017-06-14T02:14:54.393Z,981.78
2017-06-14T02:16:04.655Z,981.78
2017-06-14T02:17:14.930Z,981.81
2017-06-14T02:18:24.874Z,981.84
2017-06-14T02:19:34.504Z,981.82
2017-06-14T02:20:44.459Z,981.88
2017-06-14T02:21:54.423Z,981.88
2017-06-14T02:23:04.376Z,981.88
2017-06-14T02:24:14.633Z,981.87
2017-06-14T02:25:24.578Z,981.87
2017-06-14T02:26:34.841Z,981.91
2017-06-14T02:27:44.786Z,981.89
2017-06-14T02:28:54.732Z,981.92
2017-06-14T02:30:04.998Z,981.9
2017-06-14T02:31:14.953Z,981.92
2017-06-14T02:32:25.222Z,981.92
2017-06-14T02:33:35.487Z,981.91
2017-06-14T02:34:45.750Z,981.93
2017-06-14T02:35:56.016Z,981.93
2017-06-14T02:37:05.656Z,981.97
2017-06-14T02:38:15.922Z,981.99
2017-06-14T02:39:25.873Z,981.97
2017-06-14T02:40:36.131Z,982
2017-06-14T02:41:46.081Z,982
2017-06-14T02:42:56.025Z,982.02
2017-06-14T02:44:06.314Z,982.03
2017-06-14T02:45:16.577Z,982.03
2017-06-14T02:46:26.847Z,982
2017-06-14T02:47:37.105Z,982.05
2017-06-14T02:48:47.046Z,982.03
2017-06-14T02:49:57.007Z,982.04
2017-06-14T02:51:07.266Z,982.09
2017-06-14T02:52:17.526Z,982.06
2017-06-14T02:53:27.792Z,982.07
2017-06-14T02:54:38.055Z,982.11
2017-06-14T02:55:48.003Z,982.09
2017-06-14T02:56:57.955Z,982.08
2017-06-14T02:58:08.216Z,982.11
2017-06-14T02:59:18.161Z,982.12
2017-06-14T03:00:28.104Z,982.12
2017-06-14T03:01:38.376Z,982.12
2017-06-14T03:02:48.327Z,982.15
2017-06-14T03:03:58.591Z,982.14
2017-06-14T03:05:08.852Z,982.12
2017-06-14T03:06:18.805Z,982.15
2017-06-14T03:07:28.757Z,982.15
2017-06-14T03:08:39.015Z,982.18
2017-06-14T03:09:49.277Z,982.18
2017-06-14T03:10:59.544Z,982.21
2017-06-14T03:12:09.836Z,982.21
2017-06-14T03:13:20.099Z,982.25
2017-06-14T03:14:29.764Z,982.26
2017-06-14T03:15:40.027Z,982.25
2017-06-14T03:16:50.284Z,982.28
2017-06-14T03:18:00.231Z,982.29
2017-06-14T03:19:10.489Z,982.28
2017-06-14T03:20:20.749Z,982.27
2017-06-14T03:21:30.695Z,982.24
2017-06-14T03:22:40.640Z,982.27
2017-06-14T03:23:50.956Z,982.2
2017-06-14T03:25:01.247Z,982.2
2017-06-14T03:26:11.506Z,982.19
2017-06-14T03:27:21.763Z,982.22
2017-06-14T03:28:31.708Z,982.23
2017-06-14T03:29:41.963Z,982.26
2017-06-14T03:30:52.234Z,982.3
2017-06-14T03:32:02.181Z,982.3
2017-06-14T03:33:12.129Z,982.31
2017-06-14T03:34:22.398Z,982.3
2017-06-14T03:35:32.348Z,982.29
2017-06-14T03:36:42.625Z,982.3
2017-06-14T03:37:52.884Z,982.32
2017-06-14T03:39:03.144Z,982.31
2017-06-14T03:40:13.092Z,982.31
2017-06-14T03:41:23.235Z,982.33
2017-06-14T03:42:33.499Z,982.31
2017-06-14T03:43:43.754Z,982.37
2017-06-14T03:44:53.699Z,982.38
2017-06-14T03:46:03.667Z,982.4
2017-06-14T03:47:13.930Z,982.42
2017-06-14T03:48:24.189Z,982.43
2017-06-14T03:49:34.450Z,982.36
2017-06-14T03:50:44.710Z,982.41
2017-06-14T03:51:54.974Z,982.4
2017-06-14T03:53:04.927Z,982.39
2017-06-14T03:54:15.187Z,982.44
2017-06-14T03:55:25.446Z,982.45
2017-06-14T03:56:35.708Z,982.4
2017-06-14T03:57:45.963Z,982.48
2017-06-14T03:58:55.917Z,982.44
2017-06-14T04:00:06.179Z,982.43
2017-06-14T04:01:16.127Z,982.42
2017-06-14T04:02:26.072Z,982.42
2017-06-14T04:03:36.328Z,982.42
2017-06-14T04:04:46.591Z,982.41
2017-06-14T04:05:56.541Z,982.4
2017-06-14T04:07:06.826Z,982.44
2017-06-14T04:08:17.088Z,982.47
2017-06-14T04:09:27.351Z,982.45
2017-06-14T04:10:37.613Z,982.42
2017-06-14T04:11:47.878Z,982.43
2017-06-14T04:12:58.137Z,982.41
2017-06-14T04:14:08.434Z,982.41
2017-06-14T04:15:18.382Z,982.44
2017-06-14T04:16:28.647Z,982.45
2017-06-14T04:17:38.905Z,982.48
2017-06-14T04:18:49.174Z,982.48
2017-06-14T04:19:59.439Z,982.47
2017-06-14T04:21:09.704Z,982.48
2017-06-14T04:22:19.965Z,982.49
2017-06-14T04:23:29.920Z,982.48
2017-06-14T04:24:39.555Z,982.46
2017-06-14T04:25:49.817Z,982.51
2017-06-14T04:27:00.079Z,982.5
2017-06-14T04:28:10.025Z,982.53
2017-06-14T04:29:20.287Z,982.58
2017-06-14T04:30:30.543Z,982.57
2017-06-14T04:31:40.491Z,982.55
2017-06-14T04:32:50.752Z,982.56
2017-06-14T04:34:01.016Z,982.54
2017-06-14T04:35:11.280Z,982.56
2017-06-14T04:36:21.544Z,982.59
2017-06-14T04:37:31.807Z,982.59
2017-06-14T04:38:42.071Z,982.6
2017-06-14T04:39:52.334Z,982.58
2017-06-14T04:41:01.969Z,982.62
2017-06-14T04:42:11.916Z,982.64
2017-06-14T04:43:21.863Z,982.61
2017-06-14T04:44:32.128Z,982.62
2017-06-14T04:45:42.391Z,982.56
2017-06-14T04:46:52.034Z,982.52
2017-06-14T04:48:02.296Z,982.56
2017-06-14T04:49:12.262Z,982.58
2017-06-14T04:50:22.525Z,982.55
2017-06-14T04:51:32.720Z,982.54
2017-06-14T04:52:42.670Z,982.56
2017-06-14T04:53:53.149Z,982.57
2017-06-14T04:55:03.414Z,982.56
2017-06-14T04:56:13.688Z,982.48
2017-06-14T04:57:23.636Z,982.52
2017-06-14T04:58:32.954Z,982.52
2017-06-14T04:59:43.209Z,982.5
2017-06-14T05:00:53.478Z,982.51
2017-06-14T05:02:03.738Z,982.55
2017-06-14T05:03:19.173Z,982.53
2017-06-14T05:04:29.464Z,982.54
2017-06-14T05:05:39.409Z,982.52
2017-06-14T05:06:49.679Z,982.54
2017-06-14T05:07:59.941Z,982.51
2017-06-14T05:09:10.204Z,982.53
2017-06-14T05:10:20.464Z,982.49
2017-06-14T05:11:30.420Z,982.56
2017-06-14T05:12:40.691Z,982.55
2017-06-14T05:13:53.007Z,982.57
2017-06-14T05:15:03.266Z,982.58
2017-06-14T05:16:13.224Z,982.58
2017-06-14T05:17:23.488Z,982.6
2017-06-14T05:18:33.762Z,982.57
2017-06-14T05:19:44.024Z,982.59
2017-06-14T05:20:54.289Z,982.6
2017-06-14T05:22:04.569Z,982.59
2017-06-14T05:23:14.835Z,982.58
2017-06-14T05:24:24.799Z,982.58
2017-06-14T05:25:35.059Z,982.57
2017-06-14T05:26:45.006Z,982.56
2017-06-14T05:27:54.961Z,982.61
2017-06-14T05:29:04.946Z,982.62
2017-06-14T05:30:15.214Z,982.62
2017-06-14T05:31:25.469Z,982.64
2017-06-14T05:32:35.422Z,982.67
2017-06-14T05:33:45.683Z,982.69
2017-06-14T05:34:55.632Z,982.69
2017-06-14T05:36:04.948Z,982.7
2017-06-14T05:37:14.895Z,982.73
2017-06-14T05:38:25.166Z,982.77
2017-06-14T05:39:35.432Z,982.71
2017-06-14T05:40:45.686Z,982.71
2017-06-14T05:41:55.951Z,982.73
2017-06-14T05:43:06.213Z,982.7
2017-06-14T05:44:16.479Z,982.72
2017-06-14T05:45:26.426Z,982.7
2017-06-14T05:46:36.688Z,982.75
2017-06-14T05:47:46.949Z,982.7
2017-06-14T05:48:57.209Z,982.69
2017-06-14T05:50:07.475Z,982.7
2017-06-14T05:51:17.738Z,982.7
2017-06-14T05:52:28.002Z,982.72
2017-06-14T05:53:38.275Z,982.71
2017-06-14T05:54:48.560Z,982.7
2017-06-14T05:55:58.823Z,982.75
2017-06-14T05:57:09.089Z,982.74
2017-06-14T05:58:19.365Z,982.78
2017-06-14T05:59:29.635Z,982.77
2017-06-14T06:00:39.940Z,982.75
2017-06-14T06:01:50.213Z,982.77
2017-06-14T06:03:00.481Z,982.72
2017-06-14T06:04:10.441Z,982.75
2017-06-14T06:05:20.708Z,982.74
2017-06-14T06:06:30.971Z,982.72
2017-06-14T06:07:41.241Z,982.73
2017-06-14T06:08:51.190Z,982.72
2017-06-14T06:10:01.447Z,982.73
2017-06-14T06:11:11.395Z,982.76
2017-06-14T06:12:21.661Z,982.75
2017-06-14T06:13:31.920Z,982.76
2017-06-14T06:14:42.195Z,982.79
2017-06-14T06:15:52.459Z,982.78
2017-06-14T06:17:02.780Z,982.76
2017-06-14T06:18:12.728Z,982.8
2017-06-14T06:19:22.378Z,982.79
2017-06-14T06:20:32.644Z,982.85
2017-06-14T06:21:42.906Z,982.84
2017-06-14T06:22:52.857Z,982.87
2017-06-14T06:24:03.124Z,982.88
2017-06-14T06:25:13.081Z,982.86
2017-06-14T06:26:23.347Z,982.86
2017-06-14T06:27:33.616Z,982.87
2017-06-14T06:28:43.570Z,982.84
2017-06-14T06:29:53.833Z,982.87
2017-06-14T06:31:04.096Z,982.87
2017-06-14T06:32:14.370Z,982.91
2017-06-14T06:33:24.649Z,982.88
2017-06-14T06:34:34.918Z,982.85
2017-06-14T06:35:45.380Z,982.88
2017-06-14T06:36:55.016Z,982.92
2017-06-14T06:38:05.282Z,982.9
2017-06-14T06:39:15.553Z,982.87
2017-06-14T06:40:25.817Z,982.9
2017-06-14T06:41:36.087Z,982.91
2017-06-14T06:42:46.045Z,982.89
2017-06-14T06:43:56.315Z,982.92
2017-06-14T06:45:06.583Z,982.89
2017-06-14T06:46:16.856Z,982.93
2017-06-14T06:47:27.119Z,982.93
2017-06-14T06:48:37.384Z,982.91
2017-06-14T06:49:47.335Z,982.98
2017-06-14T06:50:57.596Z,982.99
2017-06-14T06:52:07.550Z,983.01
2017-06-14T06:53:16.869Z,982.98
2017-06-14T06:54:27.138Z,982.98
2017-06-14T06:55:37.399Z,983.01
2017-06-14T06:56:47.352Z,983.02
2017-06-14T06:57:57.632Z,983.04
2017-06-14T06:59:07.904Z,983.07
2017-06-14T07:00:17.865Z,983.08
2017-06-14T07:01:28.328Z,983.11
2017-06-14T07:02:38.279Z,983.05
2017-06-14T07:03:48.227Z,983.06
2017-06-14T07:04:58.489Z,983.09
2017-06-14T07:06:08.444Z,983.1
2017-06-14T07:07:18.701Z,983.13
2017-06-14T07:08:28.962Z,983.12
2017-06-14T07:09:39.232Z,983.13
2017-06-14T07:10:49.534Z,983.11
2017-06-14T07:11:58.857Z,983.13
2017-06-14T07:13:08.812Z,983.18
2017-06-14T07:14:19.079Z,983.15
2017-06-14T07:15:29.345Z,983.18
2017-06-14T07:16:39.615Z,983.2
2017-06-14T07:17:49.883Z,983.21
2017-06-14T07:19:00.147Z,983.21
2017-06-14T07:20:10.100Z,983.21
2017-06-14T07:21:20.370Z,983.25
2017-06-14T07:22:30.640Z,983.24
2017-06-14T07:23:40.906Z,983.26
2017-06-14T07:24:51.178Z,983.26
2017-06-14T07:26:01.132Z,983.25
2017-06-14T07:27:11.398Z,983.23
2017-06-14T07:28:21.666Z,983.22
2017-06-14T07:29:31.929Z,983.23
2017-06-14T07:30:41.561Z,983.25
2017-06-14T07:31:51.829Z,983.26
2017-06-14T07:33:01.782Z,983.22
2017-06-14T07:34:12.059Z,983.19
2017-06-14T07:35:22.329Z,983.17
2017-06-14T07:36:32.596Z,983.19
2017-06-14T07:37:42.875Z,983.17
2017-06-14T07:38:52.822Z,983.17
2017-06-14T07:40:03.093Z,983.15
2017-06-14T07:41:12.729Z,983.14
2017-06-14T07:42:23.031Z,983.16
2017-06-14T07:43:33.314Z,983.17
2017-06-14T07:44:43.579Z,983.17
2017-06-14T07:45:53.843Z,983.18
2017-06-14T07:47:03.483Z,983.15
2017-06-14T07:48:13.439Z,983.15
2017-06-14T07:49:23.413Z,983.18
2017-06-14T07:50:33.683Z,983.18
2017-06-14T07:51:43.948Z,983.17
2017-06-14T07:52:53.896Z,983.18
2017-06-14T07:54:03.846Z,983.21
2017-06-14T07:55:13.482Z,983.19
2017-06-14T07:56:23.750Z,983.16
2017-06-14T07:57:34.016Z,983.15
2017-06-14T07:58:44.282Z,983.17
2017-06-14T07:59:54.544Z,983.2
2017-06-14T08:01:04.811Z,983.13
2017-06-14T08:02:14.766Z,983.18
2017-06-14T08:03:24.723Z,983.15
2017-06-14T08:04:34.678Z,983.16
2017-06-14T08:05:44.633Z,983.16
2017-06-14T08:06:54.903Z,983.16
2017-06-14T08:08:04.857Z,983.16
2017-06-14T08:09:14.496Z,983.14
2017-06-14T08:10:24.777Z,983.18
2017-06-14T08:11:34.742Z,983.19
2017-06-14T08:12:45.005Z,983.2
2017-06-14T08:13:55.279Z,983.17
2017-06-14T08:15:05.236Z,983.17
2017-06-14T08:16:15.509Z,983.19
2017-06-14T08:17:25.798Z,983.17
2017-06-14T08:18:36.065Z,983.17
2017-06-14T08:19:46.022Z,983.18
2017-06-14T08:20:55.981Z,983.19
2017-06-14T08:22:06.245Z,983.12
2017-06-14T08:23:16.197Z,983.11
2017-06-14T08:24:26.462Z,983.11
2017-06-14T08:25:36.730Z,983.17
2017-06-14T08:26:46.689Z,983.17
2017-06-14T08:27:56.954Z,983.13
2017-06-14T08:29:06.912Z,983.17
2017-06-14T08:30:17.176Z,983.17
2017-06-14T08:31:27.442Z,983.21
2017-06-14T08:32:37.397Z,983.21
2017-06-14T08:33:47.697Z,983.21
2017-06-14T08:34:57.964Z,983.2
2017-06-14T08:36:07.920Z,983.18
2017-06-14T08:37:17.877Z,983.16
2017-06-14T08:38:28.153Z,983.22
2017-06-14T08:39:38.107Z,983.23
2017-06-14T08:40:48.062Z,983.22
2017-06-14T08:41:58.332Z,983.22
2017-06-14T08:43:08.597Z,983.22
2017-06-14T08:44:18.546Z,983.23
2017-06-14T08:45:28.512Z,983.22
2017-06-14T08:46:38.461Z,983.21
2017-06-14T08:47:48.732Z,983.25
2017-06-14T08:48:59.000Z,983.22
2017-06-14T08:50:09.271Z,983.21
2017-06-14T08:51:19.555Z,983.19
2017-06-14T08:52:29.828Z,983.18
2017-06-14T08:53:39.792Z,983.21
2017-06-14T08:54:50.057Z,983.17
2017-06-14T08:56:00.012Z,983.17
2017-06-14T08:57:09.970Z,983.18
2017-06-14T08:58:19.924Z,983.2
2017-06-14T08:59:29.891Z,983.18
2017-06-14T09:00:40.158Z,983.14
2017-06-14T09:01:50.430Z,983.16
2017-06-14T09:03:00.703Z,983.15
2017-06-14T09:04:11.172Z,983.16
2017-06-14T09:05:21.122Z,983.19
2017-06-14T09:06:31.392Z,983.21
2017-06-14T09:07:41.346Z,983.16
2017-06-14T09:08:51.615Z,983.19
2017-06-14T09:10:01.930Z,983.18
2017-06-14T09:11:11.901Z,983.16
2017-06-14T09:12:22.177Z,983.15
2017-06-14T09:13:32.447Z,983.14
2017-06-14T09:14:42.726Z,983.11
2017-06-14T09:15:52.681Z,983.14
2017-06-14T09:17:02.632Z,983.13
2017-06-14T09:18:12.903Z,983.11
2017-06-14T09:19:23.173Z,983.13
2017-06-14T09:20:33.469Z,983.05
2017-06-14T09:21:43.744Z,983.05
2017-06-14T09:22:53.696Z,983.06
2017-06-14T09:24:03.967Z,983.04
2017-06-14T09:25:14.229Z,983.03
2017-06-14T09:26:24.498Z,983.04
2017-06-14T09:27:34.763Z,983.07
2017-06-14T09:28:44.748Z,983.04
2017-06-14T09:29:55.040Z,983.05
2017-06-14T09:31:05.310Z,983.07
2017-06-14T09:32:15.575Z,983.05
2017-06-14T09:33:25.881Z,983.04
2017-06-14T09:34:36.151Z,982.99
2017-06-14T09:35:46.416Z,982.98
2017-06-14T09:36:56.685Z,983
2017-06-14T09:38:06.961Z,982.98
2017-06-14T09:39:17.246Z,983
2017-06-14T09:40:27.515Z,983
2017-06-14T09:41:37.804Z,982.98
2017-06-14T09:42:47.771Z,982.94
2017-06-14T09:43:57.729Z,982.94
2017-06-14T09:45:08.002Z,982.96
2017-06-14T09:46:18.267Z,982.98
2017-06-14T09:47:28.535Z,982.97
2017-06-14T09:48:38.809Z,982.96
2017-06-14T09:49:49.081Z,982.97
2017-06-14T09:50:59.351Z,982.99
2017-06-14T09:52:09.630Z,982.95
2017-06-14T09:53:19.899Z,982.94
2017-06-14T09:54:29.854Z,982.92
2017-06-14T09:55:40.120Z,982.91
2017-06-14T09:56:50.393Z,982.91
2017-06-14T09:58:00.670Z,982.92
2017-06-14T09:59:10.938Z,982.92
2017-06-14T10:00:20.894Z,982.92
2017-06-14T10:01:31.165Z,982.91
2017-06-14T10:02:41.446Z,982.87
2017-06-14T10:03:51.411Z,982.91
2017-06-14T10:05:01.677Z,982.95
2017-06-14T10:06:11.943Z,982.93
2017-06-14T10:07:22.211Z,982.93
2017-06-14T10:08:32.484Z,982.89
2017-06-14T10:09:42.440Z,982.94
2017-06-14T10:10:52.714Z,982.91
2017-06-14T10:12:03.006Z,982.93
2017-06-14T10:13:13.187Z,982.89
2017-06-14T10:14:23.510Z,982.88
2017-06-14T10:15:33.841Z,982.84
2017-06-14T10:16:44.106Z,982.87
2017-06-14T10:17:54.061Z,982.93
2017-06-14T10:19:04.328Z,982.92
2017-06-14T10:20:14.279Z,982.89
2017-06-14T10:21:24.234Z,982.86
2017-06-14T10:22:34.517Z,982.84
2017-06-14T10:23:44.794Z,982.81
2017-06-14T10:24:55.065Z,982.81
2017-06-14T10:26:05.025Z,982.84
2017-06-14T10:27:14.983Z,982.84
2017-06-14T10:28:25.260Z,982.84
2017-06-14T10:29:35.219Z,982.85
2017-06-14T10:30:45.489Z,982.9
2017-06-14T10:31:55.762Z,982.87
2017-06-14T10:33:05.448Z,982.84
2017-06-14T10:34:15.715Z,982.85
2017-06-14T10:35:25.988Z,982.84
2017-06-14T10:36:36.253Z,982.82
2017-06-14T10:37:46.208Z,982.79
2017-06-14T10:38:55.845Z,982.72
2017-06-14T10:40:05.799Z,982.72
2017-06-14T10:41:16.070Z,982.64
2017-06-14T10:42:26.031Z,982.63
2017-06-14T10:43:35.993Z,982.62
2017-06-14T10:44:45.942Z,982.62
2017-06-14T10:45:55.598Z,982.57
2017-06-14T10:47:05.867Z,982.56
2017-06-14T10:48:16.182Z,982.56
2017-06-14T10:49:26.452Z,982.54
2017-06-14T10:50:36.727Z,982.51
2017-06-14T10:51:46.060Z,982.52
2017-06-14T10:52:56.327Z,982.49
2017-06-14T10:54:06.591Z,982.49
2017-06-14T10:55:16.602Z,982.52
2017-06-14T10:56:26.879Z,982.49
2017-06-14T10:57:37.148Z,982.5
2017-06-14T10:58:47.103Z,982.52
2017-06-14T10:59:57.058Z,982.47
2017-06-14T11:01:07.005Z,982.51
2017-06-14T11:02:16.642Z,982.48
2017-06-14T11:03:26.908Z,982.47
2017-06-14T11:04:37.179Z,982.44
2017-06-14T11:05:47.441Z,982.44
2017-06-14T11:06:57.710Z,982.45
2017-06-14T11:08:07.978Z,982.45
2017-06-14T11:09:18.247Z,982.45
2017-06-14T11:10:28.509Z,982.42
2017-06-14T11:11:38.790Z,982.46
2017-06-14T11:12:49.053Z,982.48
2017-06-14T11:13:59.015Z,982.42
2017-06-14T11:15:09.281Z,982.43
2017-06-14T11:16:19.240Z,982.39
2017-06-14T11:17:29.197Z,982.43
2017-06-14T11:18:39.461Z,982.42
2017-06-14T11:19:49.724Z,982.37
2017-06-14T11:20:59.375Z,982.36
2017-06-14T11:22:08.708Z,982.37
2017-06-14T11:23:18.981Z,982.36
2017-06-14T11:24:29.249Z,982.39
2017-06-14T11:25:39.518Z,982.36
2017-06-14T11:26:49.473Z,982.39
2017-06-14T11:27:59.425Z,982.44
2017-06-14T11:29:09.377Z,982.49
2017-06-14T11:30:19.332Z,982.45
2017-06-14T11:31:29.598Z,982.46
2017-06-14T11:32:39.869Z,982.46
2017-06-14T11:33:50.136Z,982.5
2017-06-14T11:35:00.412Z,982.43
2017-06-14T11:36:10.682Z,982.49
2017-06-14T11:37:20.946Z,982.49
2017-06-14T11:38:31.214Z,982.51
2017-06-14T11:39:41.511Z,982.57
2017-06-14T11:40:51.784Z,982.62
2017-06-14T11:42:02.058Z,982.6
2017-06-14T11:43:12.016Z,982.64
2017-06-14T11:44:21.981Z,982.62
2017-06-14T11:45:32.251Z,982.55
2017-06-14T11:46:42.523Z,982.35
2017-06-14T11:47:52.484Z,982.37
2017-06-14T11:49:02.781Z,982.61
2017-06-14T11:50:13.056Z,982.41
2017-06-14T11:51:23.367Z,982.52
2017-06-14T11:52:33.650Z,982.65
2017-06-14T11:53:43.643Z,982.48
2017-06-14T11:54:53.608Z,982.28
2017-06-14T11:56:03.569Z,982.35
2017-06-14T11:57:13.575Z,982.39
2017-06-14T11:58:23.543Z,982.39
2017-06-14T11:59:33.817Z,982.42
2017-06-14T12:00:43.785Z,982.43
2017-06-14T12:01:54.061Z,982.44
2017-06-14T12:03:04.336Z,982.55
2017-06-14T12:04:13.992Z,982.52
2017-06-14T12:05:23.957Z,982.56
2017-06-14T12:06:33.916Z,982.57
2017-06-14T12:07:44.193Z,982.6
2017-06-14T12:08:54.467Z,982.66
2017-06-14T12:10:04.428Z,982.67
2017-06-14T12:11:14.708Z,982.65
2017-06-14T12:12:24.990Z,982.67
2017-06-14T12:13:34.949Z,982.7
2017-06-14T12:14:45.227Z,982.7
2017-06-14T12:15:55.497Z,982.7
2017-06-14T12:17:05.454Z,982.72
2017-06-14T12:18:15.734Z,982.7
2017-06-14T12:19:25.700Z,982.72
2017-06-14T12:20:35.974Z,982.73
2017-06-14T12:21:46.252Z,982.77
2017-06-14T12:22:56.210Z,982.78
2017-06-14T12:24:06.169Z,982.76
2017-06-14T12:25:16.441Z,982.74
2017-06-14T12:26:26.398Z,982.74
2017-06-14T12:27:36.037Z,982.74
2017-06-14T12:28:45.682Z,982.78
2017-06-14T12:29:55.640Z,982.76
2017-06-14T12:31:05.906Z,982.82
2017-06-14T12:32:16.174Z,982.76
2017-06-14T12:33:26.130Z,982.74
2017-06-14T12:34:35.777Z,982.76
2017-06-14T12:35:46.045Z,982.74
2017-06-14T12:36:56.320Z,982.7
2017-06-14T12:38:06.281Z,982.68
2017-06-14T12:39:16.547Z,982.7
2017-06-14T12:40:26.806Z,982.65
2017-06-14T12:41:37.071Z,982.66
2017-06-14T12:42:47.020Z,982.64
2017-06-14T12:43:56.969Z,982.63
2017-06-14T12:45:06.924Z,982.54
2017-06-14T12:46:17.198Z,982.56
2017-06-14T12:47:27.466Z,982.59
2017-06-14T12:48:37.735Z,982.58
2017-06-14T12:49:48.003Z,982.61
2017-06-14T12:50:57.955Z,982.59
2017-06-14T12:52:08.230Z,982.58
2017-06-14T12:53:18.497Z,982.57
2017-06-14T12:54:28.447Z,982.58
2017-06-14T12:55:38.714Z,982.56
2017-06-14T12:56:48.354Z,982.53
2017-06-14T12:57:58.624Z,982.62
2017-06-14T12:59:08.586Z,982.56
2017-06-14T13:00:18.871Z,982.81
2017-06-14T13:01:29.143Z,982.59
2017-06-14T13:02:38.780Z,982.88
2017-06-14T13:03:48.417Z,982.98
2017-06-14T13:04:58.368Z,982.91
2017-06-14T13:06:08.645Z,982.86
2017-06-14T13:07:18.916Z,982.93
2017-06-14T13:08:29.194Z,982.89
2017-06-14T13:09:39.465Z,982.91
2017-06-14T13:10:49.733Z,982.97
2017-06-14T13:12:00.008Z,982.93
2017-06-14T13:13:09.971Z,982.87
2017-06-14T13:14:20.244Z,982.92
2017-06-14T13:15:30.536Z,982.94
2017-06-14T13:16:40.808Z,983
2017-06-14T13:17:51.089Z,982.95
2017-06-14T13:19:01.062Z,982.75
2017-06-14T13:20:11.348Z,982.75
2017-06-14T13:21:21.630Z,982.44
2017-06-14T13:22:31.911Z,982.68
2017-06-14T13:23:42.193Z,983.04
2017-06-14T13:24:52.472Z,983.04
2017-06-14T13:26:02.750Z,983.07
2017-06-14T13:27:12.721Z,982.23
2017-06-14T13:28:22.689Z,982.49
2017-06-14T13:29:32.974Z,982.23
2017-06-14T13:30:42.628Z,982.27
2017-06-14T13:31:54.962Z,982.37
2017-06-14T13:33:05.243Z,982.87
2017-06-14T13:34:15.521Z,982.56
2017-06-14T13:35:25.802Z,983.01
2017-06-14T13:36:36.080Z,982.74
2017-06-14T13:37:46.364Z,982.98
2017-06-14T13:38:56.327Z,982.71
2017-06-14T13:40:05.978Z,982.37
2017-06-14T13:41:15.982Z,982.31
2017-06-14T13:42:25.944Z,982.41
2017-06-14T13:43:36.223Z,982.22
2017-06-14T13:44:46.500Z,982.45
2017-06-14T13:45:56.782Z,982.26
2017-06-14T13:47:07.059Z,982.26
2017-06-14T13:48:17.027Z,982.37
2017-06-14T13:49:27.302Z,982.46
2017-06-14T13:50:37.583Z,982.34
2017-06-14T13:51:47.862Z,982.39
2017-06-14T13:52:57.830Z,982.4
2017-06-14T13:54:08.150Z,982.48
2017-06-14T13:55:18.429Z,982.47
2017-06-14T13:56:28.710Z,982.52
2017-06-14T13:57:38.986Z,982.52
2017-06-14T13:58:49.262Z,982.5
2017-06-14T13:59:59.541Z,982.52
2017-06-14T14:01:09.503Z,982.53
2017-06-14T14:02:19.479Z,982.48
2017-06-14T14:03:29.438Z,982.55
2017-06-14T14:04:39.399Z,982.52
2017-06-14T14:05:49.374Z,982.51
2017-06-14T14:06:59.650Z,982.55
2017-06-14T14:08:09.929Z,982.49
2017-06-14T14:09:20.199Z,982.44
2017-06-14T14:10:30.161Z,982.42
2017-06-14T14:11:40.127Z,982.44
2017-06-14T14:12:50.399Z,982.44
2017-06-14T14:14:00.667Z,982.41
2017-06-14T14:15:10.939Z,982.39
2017-06-14T14:16:21.208Z,982.4
2017-06-14T14:17:31.166Z,982.39
2017-06-14T14:18:41.439Z,982.44
2017-06-14T14:19:51.399Z,982.44
2017-06-14T14:21:01.359Z,982.42
2017-06-14T14:22:11.008Z,982.44
2017-06-14T14:23:21.283Z,982.46
2017-06-14T14:24:31.562Z,982.49
2017-06-14T14:25:41.835Z,982.48
2017-06-14T14:26:52.110Z,982.49
2017-06-14T14:28:02.382Z,982.45
2017-06-14T14:29:12.361Z,982.46
2017-06-14T14:30:22.638Z,982.45
2017-06-14T14:31:32.906Z,982.45
2017-06-14T14:32:43.188Z,982.45
2017-06-14T14:33:53.465Z,982.46
2017-06-14T14:35:03.433Z,982.48
2017-06-14T14:36:13.705Z,982.46
2017-06-14T14:37:23.980Z,982.41
2017-06-14T14:38:34.251Z,982.38